Lawrenceville Vincennes International Airport


Codes: KLWV/
Name: Lawrenceville Vincennes International Airport
City: Lawrenceville
Country: United States
Elevation: 430 ft.

Photos at Lawrenceville Vincennes International Airport


   Photos courtesy of SpottingLog. You can add your own sightings and photos by signing up for a free trial today.



No photos found.

Weather at Lawrenceville Vincennes International Airport


Time (UTC)DescriptionTempratureWindCloud coverageVisibilityPressureHumidity
19-Apr-2024 03:00Moderate Rain19°C11 mph, SW100%9480m1013hPa88%
19-Apr-2024 06:00Moderate Rain18°C13 mph, NW100%10000m1013hPa90%
19-Apr-2024 09:00Light Rain14°C16 mph, N91%10000m1015hPa89%
19-Apr-2024 12:00Overcast Clouds10°C16 mph, N94%10000m1019hPa85%
19-Apr-2024 15:00Clear Sky12°C16 mph, N10%10000m1021hPa60%
19-Apr-2024 18:00Scattered Clouds15°C13 mph, NW36%10000m1021hPa44%
19-Apr-2024 21:00Scattered Clouds15°C11 mph, NW40%10000m1020hPa42%
20-Apr-2024 00:00Broken Clouds12°C9 mph, NW64%10000m1021hPa63%
20-Apr-2024 03:00Overcast Clouds9°C7 mph, NW97%10000m1023hPa62%
20-Apr-2024 06:00Broken Clouds8°C7 mph, NW54%10000m1024hPa66%
20-Apr-2024 09:00Clear Sky6°C7 mph, NW8%10000m1024hPa70%
20-Apr-2024 12:00Clear Sky6°C9 mph, NW6%10000m1026hPa70%
20-Apr-2024 15:00Broken Clouds10°C13 mph, NW62%10000m1026hPa50%
20-Apr-2024 18:00Scattered Clouds12°C13 mph, NW37%10000m1025hPa45%
20-Apr-2024 21:00Broken Clouds13°C13 mph, NW67%10000m1023hPa46%
21-Apr-2024 00:00Broken Clouds9°C7 mph, NW80%10000m1024hPa65%
21-Apr-2024 03:00Broken Clouds6°C7 mph, NW78%10000m1024hPa69%
21-Apr-2024 06:00Broken Clouds5°C7 mph, N84%10000m1024hPa73%
21-Apr-2024 09:00Overcast Clouds5°C7 mph, NW100%10000m1024hPa74%
21-Apr-2024 12:00Overcast Clouds5°C4 mph, N100%10000m1024hPa76%
21-Apr-2024 15:00Broken Clouds10°C9 mph, N64%10000m1024hPa54%
21-Apr-2024 18:00Scattered Clouds13°C9 mph, NW35%10000m1023hPa48%
21-Apr-2024 21:00Broken Clouds14°C9 mph, NW58%10000m1020hPa45%
22-Apr-2024 00:00Broken Clouds11°C4 mph, N55%10000m1020hPa63%
22-Apr-2024 03:00Scattered Clouds8°C2 mph, N46%10000m1021hPa63%
22-Apr-2024 06:00Scattered Clouds7°C4 mph, N28%10000m1020hPa68%
22-Apr-2024 09:00Clear Sky6°C2 mph, N3%10000m1020hPa69%
22-Apr-2024 12:00Clear Sky6°C2 mph, SE2%10000m1020hPa69%
22-Apr-2024 15:00Clear Sky13°C4 mph, S0%10000m1020hPa52%
22-Apr-2024 18:00Clear Sky16°C7 mph, SW2%10000m1019hPa44%
22-Apr-2024 21:00Few Clouds17°C9 mph, S18%10000m1016hPa45%
23-Apr-2024 00:00Few Clouds13°C7 mph, S23%10000m1015hPa68%
23-Apr-2024 03:00Broken Clouds10°C9 mph, S67%10000m1016hPa74%
23-Apr-2024 06:00Broken Clouds10°C11 mph, S81%10000m1015hPa76%
23-Apr-2024 09:00Overcast Clouds11°C13 mph, S90%10000m1014hPa73%
23-Apr-2024 12:00Overcast Clouds11°C16 mph, S95%10000m1013hPa76%
23-Apr-2024 15:00Light Rain11°C16 mph, SW100%4996m1013hPa88%
23-Apr-2024 18:00Moderate Rain12°C18 mph, SW100%10000m1013hPa93%
23-Apr-2024 21:00Moderate Rain12°C13 mph, SW100%10000m1012hPa96%
24-Apr-2024 00:00Light Rain14°C13 mph, SW100%10000m1013hPa92%